createdAt,value
2018-06-27T00:00:06.461Z,10.2
2018-06-27T00:05:01.745Z,10.4
2018-06-27T00:10:01.465Z,10.2
2018-06-27T00:15:02.490Z,10.5
2018-06-27T00:25:02.496Z,11.0
2018-06-27T00:30:06.540Z,11.0
2018-06-27T00:35:01.796Z,11.6
2018-06-27T00:40:01.635Z,12.2
2018-06-27T00:45:01.420Z,12.7
2018-06-27T00:50:01.614Z,12.6
2018-06-27T00:55:01.454Z,13.0
2018-06-27T01:00:01.630Z,13.2
2018-06-27T01:05:06.495Z,13.1
2018-06-27T01:10:01.996Z,12.4
2018-06-27T01:15:01.441Z,12.4
2018-06-27T01:20:02.392Z,12.2
2018-06-27T01:25:01.434Z,12.0
2018-06-27T01:30:06.496Z,12.2
2018-06-27T01:35:01.435Z,12.2
2018-06-27T01:40:01.668Z,12.4
2018-06-27T01:45:01.508Z,12.2
2018-06-27T01:50:06.578Z,12.4
2018-06-27T01:55:01.555Z,12.2
2018-06-27T02:00:06.577Z,12.2
2018-06-27T02:05:01.769Z,12.5
2018-06-27T02:10:01.510Z,12.4
2018-06-27T02:15:01.655Z,12.6
2018-06-27T02:20:06.578Z,12.4
2018-06-27T02:25:01.487Z,12.8
2018-06-27T02:30:01.660Z,12.6
2018-06-27T02:40:01.619Z,12.5
2018-06-27T02:45:02.453Z,13.0
2018-06-27T02:50:02.564Z,12.8
2018-06-27T02:55:06.477Z,12.7
2018-06-27T03:00:01.596Z,12.4
2018-06-27T03:05:01.529Z,12.9
2018-06-27T03:10:01.521Z,12.8
2018-06-27T03:15:01.474Z,13.2
2018-06-27T03:20:02.911Z,13.2
2018-06-27T03:25:01.546Z,13.8
2018-06-27T03:30:01.687Z,13.9
2018-06-27T03:35:01.542Z,13.5
2018-06-27T03:40:01.840Z,13.8
2018-06-27T03:45:01.678Z,14.1
2018-06-27T03:50:01.633Z,14.2
2018-06-27T03:55:06.525Z,14.5
2018-06-27T04:00:01.752Z,15.1
2018-06-27T04:05:01.560Z,15.4
2018-06-27T04:10:02.079Z,15.5
2018-06-27T04:15:06.482Z,15.5
2018-06-27T04:20:01.843Z,15.2
2018-06-27T04:25:06.605Z,14.8
2018-06-27T04:30:01.703Z,14.3
2018-06-27T04:35:01.474Z,14.6
2018-06-27T04:40:01.606Z,14.8
2018-06-27T04:45:01.769Z,14.7
2018-06-27T04:50:02.160Z,15.2
2018-06-27T04:55:01.582Z,15.1
2018-06-27T05:00:02.801Z,14.7
2018-06-27T05:05:01.651Z,14.3
2018-06-27T05:10:01.659Z,14.1
2018-06-27T05:15:01.874Z,14.3
2018-06-27T05:20:01.585Z,14.6
2018-06-27T05:25:01.581Z,14.7
2018-06-27T05:30:01.645Z,14.3
2018-06-27T05:35:01.513Z,14.5
2018-06-27T05:40:02.629Z,14.0
2018-06-27T05:45:01.815Z,13.5
2018-06-27T05:50:01.780Z,13.4
2018-06-27T05:55:01.588Z,14.1
2018-06-27T06:00:02.909Z,14.0
2018-06-27T06:05:01.756Z,13.9
2018-06-27T06:10:06.652Z,13.9
2018-06-27T06:15:01.877Z,13.9
2018-06-27T06:20:02.129Z,13.4
2018-06-27T06:25:01.772Z,13.3
2018-06-27T06:30:02.733Z,12.7
2018-06-27T06:35:06.529Z,12.7
2018-06-27T06:40:01.618Z,12.4
2018-06-27T06:45:01.512Z,11.8
2018-06-27T06:50:01.862Z,11.9
2018-06-27T06:55:01.526Z,12.5
2018-06-27T07:00:01.581Z,13.1
2018-06-27T07:05:01.802Z,12.9
2018-06-27T07:10:02.133Z,13.2
2018-06-27T07:15:01.486Z,12.5
2018-06-27T07:20:01.794Z,12.0
2018-06-27T07:25:01.971Z,11.0
2018-06-27T07:30:01.964Z,10.6
2018-06-27T07:35:01.620Z,10.2
2018-06-27T07:40:02.155Z,10.2
2018-06-27T07:45:01.577Z,9.9
2018-06-27T07:50:01.641Z,10.1
2018-06-27T07:55:01.670Z,10.2
2018-06-27T08:00:01.968Z,10.0
2018-06-27T08:05:06.583Z,10.0
2018-06-27T08:10:02.363Z,9.8
2018-06-27T08:15:01.526Z,9.0
2018-06-27T08:20:01.587Z,8.2
2018-06-27T08:25:01.591Z,7.7
2018-06-27T08:30:01.751Z,7.5
2018-06-27T08:35:01.524Z,7.6
2018-06-27T08:40:01.675Z,8.3
2018-06-27T08:45:01.673Z,8.9
2018-06-27T08:50:01.845Z,9.6
2018-06-27T08:55:06.936Z,9.7
2018-06-27T09:00:01.717Z,9.9
2018-06-27T09:05:06.773Z,9.9
2018-06-27T09:15:01.719Z,9.6
2018-06-27T09:20:01.694Z,9.3
2018-06-27T09:25:01.774Z,8.9
2018-06-27T09:30:01.652Z,8.5
2018-06-27T09:40:06.758Z,8.1
2018-06-27T09:45:01.837Z,8.1
2018-06-27T09:50:02.101Z,8.6
2018-06-27T09:55:02.584Z,8.6
2018-06-27T10:00:01.593Z,9.1
2018-06-27T10:05:01.592Z,9.2
2018-06-27T10:10:01.638Z,9.2
2018-06-27T10:15:01.511Z,8.7
2018-06-27T10:20:02.279Z,8.3
2018-06-27T10:25:01.620Z,7.6
2018-06-27T10:30:01.673Z,7.0
2018-06-27T10:35:01.519Z,6.6
2018-06-27T10:40:01.562Z,6.2
2018-06-27T10:45:01.848Z,6.2
2018-06-27T10:50:01.745Z,6.4
2018-06-27T10:55:01.685Z,6.8
2018-06-27T11:00:02.320Z,7.2
2018-06-27T11:05:02.645Z,7.9
2018-06-27T11:10:02.241Z,8.4
2018-06-27T11:15:01.546Z,8.0
2018-06-27T11:20:01.654Z,7.2
2018-06-27T11:25:01.514Z,6.6
2018-06-27T11:30:01.782Z,5.8
2018-06-27T11:35:06.547Z,5.3
2018-06-27T11:40:02.320Z,5.5
2018-06-27T11:45:01.718Z,5.7
2018-06-27T11:50:02.874Z,6.3
2018-06-27T11:55:01.621Z,6.6
2018-06-27T12:00:01.974Z,6.5
2018-06-27T12:06:02.099Z,5.9
2018-06-27T12:11:01.835Z,5.2
2018-06-27T12:16:01.631Z,4.0
2018-06-27T12:21:01.651Z,3.2
2018-06-27T12:26:01.523Z,2.4
2018-06-27T12:31:01.655Z,1.8
2018-06-27T12:36:01.532Z,1.6
2018-06-27T12:42:02.374Z,1.4
2018-06-27T12:47:01.525Z,1.2
2018-06-27T12:52:01.870Z,1.2
2018-06-27T12:57:01.517Z,1.4
2018-06-27T13:02:01.847Z,1.4
2018-06-27T13:07:01.689Z,1.5
2018-06-27T13:12:01.597Z,1.7
2018-06-27T13:18:01.517Z,1.7
2018-06-27T13:23:01.592Z,1.4
2018-06-27T13:28:06.879Z,1.0
2018-06-27T13:33:01.712Z,0.6
2018-06-27T13:38:01.723Z,0.2
2018-06-27T13:43:01.662Z,0.0
2018-06-27T13:54:01.582Z,0.0
2018-06-27T13:59:01.586Z,0.0
2018-06-27T14:14:01.660Z,0.0
2018-06-27T14:19:02.371Z,0.0
2018-06-27T14:30:01.876Z,0.0
2018-06-27T14:40:02.406Z,0.0
2018-06-27T14:45:02.066Z,0.0
2018-06-27T14:50:02.044Z,0.0
2018-06-27T14:55:01.787Z,0.0
2018-06-27T15:00:02.367Z,0.0
2018-06-27T15:10:01.775Z,0.0
2018-06-27T15:15:01.588Z,0.0
2018-06-27T15:20:01.643Z,0.0
2018-06-27T15:25:01.528Z,0.0
2018-06-27T15:30:02.452Z,0.0
2018-06-27T15:35:01.708Z,0.0
2018-06-27T15:40:01.953Z,0.0
2018-06-27T15:45:01.542Z,0.0
2018-06-27T15:50:01.708Z,0.0
2018-06-27T15:55:01.525Z,0.0
2018-06-27T16:00:01.648Z,0.0
2018-06-27T16:05:01.909Z,0.0
2018-06-27T16:15:01.635Z,0.0
2018-06-27T16:20:02.160Z,0.0
2018-06-27T16:25:01.928Z,0.0
2018-06-27T16:30:01.833Z,0.0
2018-06-27T16:35:01.598Z,0.0
2018-06-27T16:40:01.757Z,0.0
2018-06-27T16:45:01.518Z,0.0
2018-06-27T16:50:02.022Z,0.0
2018-06-27T17:00:01.767Z,0.2
2018-06-27T17:15:02.029Z,0.2
2018-06-27T17:20:01.778Z,0.2
2018-06-27T17:25:06.527Z,0.3
2018-06-27T17:30:01.793Z,0.5
2018-06-27T17:40:01.787Z,0.6
2018-06-27T17:45:01.643Z,0.5
2018-06-27T17:55:01.718Z,0.4
2018-06-27T18:00:01.583Z,0.6
2018-06-27T18:05:01.582Z,0.8
2018-06-27T18:10:01.655Z,1.2
2018-06-27T18:15:02.612Z,1.6
2018-06-27T18:20:02.063Z,1.9
2018-06-27T18:25:02.212Z,2.2
2018-06-27T18:30:02.547Z,2.4
2018-06-27T18:35:06.884Z,2.5
2018-06-27T18:40:01.659Z,3.0
2018-06-27T18:46:01.520Z,3.0
2018-06-27T18:51:01.639Z,3.1
2018-06-27T18:56:01.593Z,3.1
2018-06-27T19:06:01.687Z,2.9
2018-06-27T19:16:01.612Z,3.0
2018-06-27T19:21:01.608Z,3.1
2018-06-27T19:26:01.516Z,3.2
2018-06-27T19:31:01.717Z,3.1
2018-06-27T19:36:01.616Z,3.5
2018-06-27T19:41:02.209Z,3.2
2018-06-27T19:46:01.623Z,3.3
2018-06-27T19:51:01.763Z,3.6
2018-06-27T20:07:01.635Z,4.2
2018-06-27T20:12:01.742Z,4.2
2018-06-27T20:22:01.941Z,4.0
2018-06-27T20:27:01.554Z,3.9
2018-06-27T20:32:01.489Z,3.6
2018-06-27T20:42:01.647Z,3.2
2018-06-27T20:47:06.621Z,3.4
2018-06-27T20:52:01.600Z,3.4
2018-06-27T20:57:01.583Z,3.4
2018-06-27T21:02:01.649Z,3.6
2018-06-27T21:07:06.527Z,3.8
2018-06-27T21:12:01.742Z,3.8
2018-06-27T21:17:06.622Z,3.8
2018-06-27T21:22:01.529Z,4.0
2018-06-27T21:28:01.549Z,3.8
2018-06-27T21:33:01.626Z,3.6
2018-06-27T21:38:01.548Z,3.4
2018-06-27T21:43:01.845Z,3.6
2018-06-27T21:48:01.876Z,3.7
2018-06-27T21:53:01.735Z,4.1
2018-06-27T21:58:01.519Z,4.2
2018-06-27T22:03:01.591Z,4.5
2018-06-27T22:08:06.536Z,4.4
2018-06-27T22:13:02.699Z,4.4
2018-06-27T22:18:01.482Z,4.2
2018-06-27T22:23:01.573Z,4.2
2018-06-27T22:38:01.616Z,4.4
2018-06-27T22:43:01.631Z,4.6
2018-06-27T22:48:01.592Z,4.9
2018-06-27T22:53:01.561Z,5.0
2018-06-27T22:58:01.581Z,4.8
2018-06-27T23:03:01.514Z,5.0
2018-06-27T23:08:01.484Z,4.8
2018-06-27T23:13:01.708Z,4.5
2018-06-27T23:18:01.540Z,4.4
2018-06-27T23:23:01.647Z,4.2
2018-06-27T23:28:01.526Z,3.8
2018-06-27T23:38:01.651Z,3.4
2018-06-27T23:43:02.561Z,3.0
2018-06-27T23:48:01.482Z,3.2
2018-06-27T23:53:01.582Z,3.4
2018-06-27T23:58:01.515Z,3.6
